Time;durP1;ratioP1;P1;durP2;ratioP2;P2;SDS_P1;SDS_P2;PMS_P1;PMS_P2;Temp;Humidity;BMP_temperature;BMP_pressure;BME280_temperature;BME280_humidity;BME280_pressure;Samples;Min_cycle;Max_cycle;Signal;HPM_P1;HPM_P2
2022/04/13 04:30:43;;;;;;;;;5.75;5.00;;;;;15.13;74.74;101045.94;5079102;27;45466;-69
2022/04/13 04:33:12;;;;;;;;;6.50;6.00;;;;;15.07;74.43;101042.72;5034969;28;45323;-70
2022/04/13 04:35:39;;;;;;;;;6.00;6.00;;;;;15.05;75.13;101042.84;5034476;28;45478;-70
2022/04/13 04:38:05;;;;;;;;;6.50;6.25;;;;;15.10;74.96;101045.25;5035335;28;45365;-69
2022/04/13 04:40:30;;;;;;;;;5.25;4.75;;;;;15.07;74.60;101054.38;5034906;28;45562;-71
2022/04/13 04:42:58;;;;;;;;;6.25;5.00;;;;;15.17;74.56;101056.53;5034447;28;45384;-70
2022/04/13 04:45:23;;;;;;;;;8.75;8.75;;;;;15.17;74.25;101052.00;5034236;28;45427;-70
2022/04/13 04:47:50;;;;;;;;;5.00;3.75;;;;;15.23;74.02;101064.25;5034054;28;45685;-71
2022/04/13 04:50:16;;;;;;;;;6.00;6.00;;;;;15.21;74.16;101058.09;5034068;28;45493;-70
2022/04/13 04:52:43;;;;;;;;;6.75;5.00;;;;;15.12;74.28;101043.31;5034449;28;46313;-71
2022/04/13 04:55:10;;;;;;;;;10.75;7.00;;;;;15.20;73.96;101050.97;5034164;28;45537;-70
2022/04/13 04:57:36;;;;;;;;;9.00;6.00;;;;;15.24;74.46;101049.81;5034273;28;45382;-70
2022/04/13 05:00:04;;;;;;;;;6.00;5.00;;;;;15.23;74.39;101059.72;5033731;28;45304;-70
2022/04/13 05:02:30;;;;;;;;;8.00;5.50;;;;;15.17;74.36;101048.44;5033739;28;46195;-71
2022/04/13 05:04:55;;;;;;;;;7.75;6.00;;;;;15.14;74.41;101047.66;5033917;28;45447;-70
2022/04/13 05:07:20;;;;;;;;;8.75;5.75;;;;;15.18;74.64;101063.69;5034184;28;45416;-70
2022/04/13 05:09:46;;;;;;;;;6.00;5.25;;;;;15.23;74.13;101058.88;5034020;28;45340;-71
2022/04/13 05:12:11;;;;;;;;;6.00;6.00;;;;;15.27;74.19;101061.31;5004921;28;45512;-71
2022/04/13 05:14:36;;;;;;;;;8.75;7.00;;;;;15.39;73.85;101060.56;5013526;28;45444;-72
2022/04/13 05:17:02;;;;;;;;;7.50;6.00;;;;;15.49;73.26;101068.97;5018549;28;45622;-69
2022/04/13 05:19:27;;;;;;;;;8.25;7.00;;;;;15.58;72.49;101079.25;5047232;28;45390;-68
2022/04/13 05:21:53;;;;;;;;;7.00;6.50;;;;;15.61;72.62;101072.78;5033753;28;46177;-69
2022/04/13 05:24:18;;;;;;;;;9.75;7.75;;;;;15.59;72.40;101070.19;5033742;28;45360;-70
2022/04/13 05:26:43;;;;;;;;;13.25;7.00;;;;;15.66;72.72;101079.63;5037195;28;45492;-71
2022/04/13 05:29:08;;;;;;;;;9.00;8.00;;;;;15.66;72.71;101076.06;5033360;28;45454;-70
2022/04/13 05:31:34;;;;;;;;;7.00;7.00;;;;;15.74;72.89;101077.34;5033262;28;45405;-70
2022/04/13 05:33:59;;;;;;;;;8.25;8.00;;;;;15.77;72.67;101077.16;5033459;28;45489;-72
2022/04/13 05:36:25;;;;;;;;;10.75;9.00;;;;;15.83;72.48;101074.06;5033630;28;45311;-71
2022/04/13 05:38:50;;;;;;;;;8.75;7.50;;;;;15.88;72.19;101082.78;5033596;28;45537;-75
2022/04/13 05:41:15;;;;;;;;;10.75;7.50;;;;;15.72;72.33;101051.38;5016023;28;46591;-77
2022/04/13 05:43:41;;;;;;;;;7.75;7.75;;;;;15.87;72.17;101082.88;5033239;28;45437;-70
2022/04/13 05:46:06;;;;;;;;;7.00;6.00;;;;;15.88;71.63;101080.06;5033660;28;45412;-75
2022/04/13 05:48:31;;;;;;;;;9.25;7.00;;;;;15.89;71.44;101084.50;5033229;28;45572;-76
2022/04/13 05:50:59;;;;;;;;;7.25;6.75;;;;;15.84;71.95;101085.75;5033726;28;45817;-75
2022/04/13 05:53:24;;;;;;;;;8.75;7.00;;;;;15.92;71.62;101090.66;5012668;28;45289;-73
2022/04/13 05:55:55;;;;;;;;;12.00;10.25;;;;;15.97;71.36;101085.88;5013629;28;45316;-72
2022/04/13 05:58:25;;;;;;;;;7.50;7.00;;;;;15.94;71.32;101081.50;5013104;28;46570;-77
2022/04/13 06:00:50;;;;;;;;;8.75;6.00;;;;;16.02;71.20;101092.72;5013514;28;45344;-73
2022/04/13 06:03:17;;;;;;;;;8.25;7.75;;;;;16.05;71.59;101102.47;5012720;28;45365;-72
2022/04/13 06:05:42;;;;;;;;;11.75;9.75;;;;;16.04;71.40;101107.00;5016617;28;45368;-73
2022/04/13 06:08:08;;;;;;;;;7.50;7.50;;;;;16.05;71.26;101113.28;5016050;28;45832;-74
2022/04/13 06:10:33;;;;;;;;;9.25;7.00;;;;;16.04;71.65;101111.56;5017037;28;46053;-72
2022/04/13 06:12:59;;;;;;;;;8.00;7.00;;;;;15.99;71.38;101113.69;5016908;28;45372;-72
2022/04/13 06:15:24;;;;;;;;;8.00;5.00;;;;;15.96;71.76;101121.97;5016724;28;45312;-71
2022/04/13 06:17:49;;;;;;;;;8.00;8.00;;;;;15.70;72.45;101113.66;5031530;28;45434;-70
2022/04/13 06:20:15;;;;;;;;;14.25;9.50;;;;;15.74;72.58;101126.00;5045428;28;45373;-71
2022/04/13 06:22:42;;;;;;;;;13.50;9.50;;;;;15.74;72.66;101120.59;5036216;28;45307;-71
2022/04/13 06:25:09;;;;;;;;;13.50;8.25;;;;;15.80;72.62;101139.16;5018556;28;45404;-71
2022/04/13 06:27:35;;;;;;;;;7.75;6.25;;;;;15.74;72.58;101131.41;5034233;28;45511;-71
2022/04/13 06:30:00;;;;;;;;;9.75;9.00;;;;;15.68;73.17;101139.00;5036136;28;45996;-72
2022/04/13 06:32:33;;;;;;;;;9.75;9.75;;;;;15.64;73.69;101141.06;5038104;28;45391;-71
2022/04/13 06:35:00;;;;;;;;;10.00;9.00;;;;;15.56;74.22;101148.75;5056796;28;45307;-70
2022/04/13 06:37:26;;;;;;;;;10.75;8.75;;;;;15.55;74.05;101146.13;5056233;28;45497;-71
2022/04/13 06:39:51;;;;;;;;;10.25;7.00;;;;;15.55;74.55;101149.72;5056426;28;45964;-71
2022/04/13 06:42:17;;;;;;;;;14.50;9.00;;;;;15.57;74.25;101152.34;5056511;28;45356;-70
2022/04/13 06:44:43;;;;;;;;;11.75;9.00;;;;;15.58;74.47;101148.63;5056061;28;45433;-70
2022/04/13 06:47:08;;;;;;;;;10.00;10.00;;;;;15.59;74.25;101166.59;5056061;28;45400;-71
2022/04/13 06:49:33;;;;;;;;;9.75;8.00;;;;;15.62;74.26;101174.53;5056392;28;46164;-71
2022/04/13 06:51:59;;;;;;;;;11.00;11.00;;;;;15.66;73.61;101185.06;5056015;28;45350;-70
2022/04/13 06:54:27;;;;;;;;;12.00;12.00;;;;;15.65;73.96;101177.91;5056491;28;45448;-71
2022/04/13 06:56:52;;;;;;;;;16.25;12.00;;;;;15.64;74.79;101200.53;5055989;28;46080;-71
2022/04/13 06:59:17;;;;;;;;;9.50;8.50;;;;;15.61;74.61;101197.97;5056060;28;46291;-71
2022/04/13 07:01:43;;;;;;;;;9.00;6.75;;;;;15.62;74.42;101212.38;5056291;28;45326;-71
2022/04/13 07:04:08;;;;;;;;;15.50;14.25;;;;;15.65;74.11;101213.03;5055889;28;45315;-71
2022/04/13 07:06:33;;;;;;;;;15.50;13.00;;;;;15.57;74.57;101200.97;5055611;28;45221;-71
2022/04/13 07:08:59;;;;;;;;;15.00;13.00;;;;;15.57;74.70;101219.91;5056041;28;45248;-71
2022/04/13 07:11:24;;;;;;;;;14.75;13.75;;;;;15.57;74.24;101223.44;5055879;28;45528;-70
2022/04/13 07:13:49;;;;;;;;;11.00;10.00;;;;;15.56;74.85;101219.03;5056120;28;45323;-71
2022/04/13 07:16:15;;;;;;;;;13.25;10.00;;;;;15.65;74.26;101234.66;5054612;28;45316;-70
2022/04/13 07:18:40;;;;;;;;;12.25;11.00;;;;;15.65;74.46;101240.06;5068597;28;46016;-72
2022/04/13 07:21:06;;;;;;;;;11.50;11.50;;;;;15.70;74.54;101248.81;5057808;28;45450;-72
2022/04/13 07:23:31;;;;;;;;;15.00;14.00;;;;;15.67;74.62;101235.44;5055506;28;45303;-70
2022/04/13 07:25:56;;;;;;;;;10.00;8.00;;;;;15.72;74.05;101246.88;5055287;28;45502;-70
2022/04/13 07:28:22;;;;;;;;;9.75;9.00;;;;;15.77;73.68;101249.31;5055298;28;46073;-70
2022/04/13 07:30:47;;;;;;;;;9.00;6.50;;;;;15.72;72.97;101255.00;5055296;28;45386;-71
2022/04/13 07:33:12;;;;;;;;;13.00;9.50;;;;;15.65;73.20;101253.59;5055638;28;45304;-70
2022/04/13 07:35:38;;;;;;;;;8.00;6.25;;;;;15.61;72.75;101248.47;5055422;28;45360;-70
2022/04/13 07:38:03;;;;;;;;;8.25;8.00;;;;;15.48;73.43;101241.03;5055593;28;45854;-71
2022/04/13 07:40:29;;;;;;;;;5.00;5.00;;;;;15.57;73.83;101238.81;5055338;28;45408;-70
2022/04/13 07:42:55;;;;;;;;;9.75;8.50;;;;;15.73;72.68;101248.63;5055465;28;45338;-70
2022/04/13 07:45:21;;;;;;;;;16.00;9.75;;;;;15.79;72.63;101250.09;5055204;28;45267;-71
2022/04/13 07:47:46;;;;;;;;;8.00;7.00;;;;;15.87;72.07;101255.91;5055323;28;45347;-71
2022/04/13 07:50:12;;;;;;;;;11.50;10.50;;;;;15.91;72.54;101256.59;5055391;28;45398;-70
2022/04/13 07:52:38;;;;;;;;;10.00;7.25;;;;;16.03;72.52;101259.44;5055556;28;45195;-71
2022/04/13 07:55:04;;;;;;;;;12.25;11.00;;;;;16.09;72.21;101264.47;5055396;28;45293;-70
2022/04/13 07:57:30;;;;;;;;;11.00;9.00;;;;;16.13;72.38;101262.44;5043741;28;46065;-71
2022/04/13 07:59:55;;;;;;;;;14.50;11.00;;;;;16.10;72.00;101251.81;5035226;28;45280;-71
2022/04/13 08:02:22;;;;;;;;;11.50;10.25;;;;;16.17;72.05;101261.28;5055287;28;45225;-70
2022/04/13 08:04:47;;;;;;;;;10.25;9.75;;;;;16.21;72.48;101254.75;5055157;28;45336;-71
2022/04/13 08:07:14;;;;;;;;;10.25;9.25;;;;;16.17;71.31;101256.75;5055121;28;46116;-71
2022/04/13 08:09:40;;;;;;;;;15.50;9.00;;;;;16.13;72.11;101249.81;5055043;28;45497;-70
2022/04/13 08:12:05;;;;;;;;;12.25;11.00;;;;;16.10;71.63;101249.97;5055332;28;45240;-70
2022/04/13 08:14:31;;;;;;;;;11.50;9.75;;;;;16.16;72.32;101262.28;5054817;28;45367;-70
2022/04/13 08:16:56;;;;;;;;;12.75;8.50;;;;;16.08;72.35;101254.59;5054644;28;45392;-70
2022/04/13 08:19:23;;;;;;;;;12.75;10.50;;;;;16.10;71.86;101254.50;5068238;28;45365;-71
2022/04/13 08:21:48;;;;;;;;;10.75;9.50;;;;;16.17;72.02;101272.09;5055271;28;45219;-70
2022/04/13 08:24:17;;;;;;;;;12.00;10.75;;;;;16.17;71.98;101283.81;5054905;28;45504;-71
2022/04/13 08:26:44;;;;;;;;;17.00;13.50;;;;;16.18;72.50;101272.03;5055881;28;45387;-72
2022/04/13 08:29:09;;;;;;;;;11.75;10.75;;;;;16.20;72.33;101275.50;5054516;28;45365;-70
2022/04/13 08:31:34;;;;;;;;;16.25;10.25;;;;;16.20;71.91;101280.91;5043804;28;45340;-71
2022/04/13 08:34:00;;;;;;;;;15.75;12.00;;;;;16.21;72.12;101279.97;5070113;28;45307;-71
2022/04/13 08:36:25;;;;;;;;;14.75;12.00;;;;;16.21;72.38;101282.66;5075227;28;45716;-71
2022/04/13 08:38:51;;;;;;;;;12.25;12.25;;;;;16.18;71.88;101285.53;5056864;28;45416;-72
2022/04/13 08:41:26;;;;;;;;;12.50;12.25;;;;;16.13;72.22;101301.19;5075360;28;45323;-71
2022/04/13 08:43:58;;;;;;;;;12.25;11.00;;;;;16.07;72.72;101298.00;5056552;28;45474;-70
2022/04/13 08:46:25;;;;;;;;;18.25;13.00;;;;;16.03;72.07;101308.13;5074777;28;47154;-71
2022/04/13 08:48:52;;;;;;;;;15.00;12.75;;;;;16.05;72.29;101310.72;5074963;28;45389;-70
2022/04/13 08:51:21;;;;;;;;;12.25;12.25;;;;;16.09;72.32;101310.44;5074944;28;45242;-71
2022/04/13 08:53:50;;;;;;;;;17.50;16.00;;;;;16.03;72.71;101315.34;5074909;28;45228;-71
2022/04/13 08:56:19;;;;;;;;;21.00;17.00;;;;;15.92;73.82;101318.69;5074801;28;46969;-70
2022/04/13 08:59:06;;;;;;;;;17.00;12.50;;;;;15.91;73.79;101325.06;5074414;28;45513;-71
2022/04/13 09:01:46;;;;;;;;;15.25;13.75;;;;;15.85;74.03;101337.09;5074756;28;45427;-71
2022/04/13 09:04:15;;;;;;;;;15.75;11.00;;;;;15.84;74.18;101331.78;5074354;28;45354;-71
2022/04/13 09:06:42;;;;;;;;;14.25;11.50;;;;;15.81;74.27;101337.38;5056559;28;45395;-71
2022/04/13 09:09:14;;;;;;;;;15.25;14.00;;;;;15.72;73.82;101338.78;5074691;28;45398;-71
2022/04/13 09:11:44;;;;;;;;;14.75;12.50;;;;;15.75;73.29;101343.13;5074850;28;45235;-70
2022/04/13 09:14:10;;;;;;;;;16.25;12.50;;;;;15.72;74.08;101336.09;5074304;28;45362;-71
2022/04/13 09:16:36;;;;;;;;;11.50;11.50;;;;;15.74;73.76;101346.78;5074474;28;45311;-70
2022/04/13 09:19:03;;;;;;;;;12.00;11.00;;;;;15.80;74.07;101349.16;5067356;28;45311;-70
2022/04/13 09:21:32;;;;;;;;;18.00;12.00;;;;;15.85;73.85;101350.63;5054652;28;45309;-70
2022/04/13 09:23:59;;;;;;;;;12.75;11.75;;;;;15.93;74.18;101358.28;5054366;28;45269;-70
2022/04/13 09:26:25;;;;;;;;;8.75;8.00;;;;;16.01;73.39;101358.72;5054010;28;45389;-70
2022/04/13 09:28:51;;;;;;;;;11.25;10.75;;;;;16.06;73.41;101362.03;5053756;28;45442;-71
2022/04/13 09:31:16;;;;;;;;;14.25;10.25;;;;;16.13;73.71;101362.53;5035811;28;45958;-70
2022/04/13 09:33:43;;;;;;;;;16.00;11.25;;;;;16.14;72.76;101362.47;5053768;28;45324;-70
2022/04/13 09:36:08;;;;;;;;;11.50;10.00;;;;;16.16;72.45;101365.91;5053975;28;46702;-70
2022/04/13 09:38:35;;;;;;;;;11.50;11.00;;;;;16.19;72.91;101364.88;5054279;28;45324;-71
2022/04/13 09:41:11;;;;;;;;;7.00;7.00;;;;;16.11;72.55;101357.22;5057513;28;45350;-71
2022/04/13 09:43:37;;;;;;;;;10.25;9.00;;;;;16.24;72.65;101366.38;5057194;28;45367;-70
2022/04/13 09:46:03;;;;;;;;;13.75;10.75;;;;;16.33;72.54;101372.19;5057364;28;46205;-70
2022/04/13 09:48:29;;;;;;;;;12.00;11.00;;;;;16.36;71.90;101375.56;5057213;28;45422;-72
2022/04/13 09:50:58;;;;;;;;;10.00;10.00;;;;;16.30;71.91;101373.22;5057448;28;45311;-70
2022/04/13 09:53:23;;;;;;;;;12.25;10.25;;;;;16.25;70.53;101370.78;5057181;28;45482;-70
2022/04/13 09:56:02;;;;;;;;;11.00;10.25;;;;;16.20;71.01;101375.59;5057420;28;45271;-69
2022/04/13 09:58:32;;;;;;;;;11.00;9.50;;;;;16.23;71.50;101369.16;5056819;28;45576;-70
2022/04/13 10:01:02;;;;;;;;;14.75;9.25;;;;;16.27;71.77;101354.47;5057434;28;45386;-70
2022/04/13 10:03:28;;;;;;;;;14.00;13.00;;;;;16.38;72.25;101367.34;5057226;28;45283;-70
2022/04/13 10:05:56;;;;;;;;;11.50;11.50;;;;;16.39;71.38;101371.81;5038834;28;46927;-71
2022/04/13 10:08:26;;;;;;;;;13.00;10.50;;;;;16.41;71.33;101370.75;5057240;28;45339;-70
2022/04/13 10:10:59;;;;;;;;;12.75;11.50;;;;;16.46;71.63;101376.75;5057308;28;45320;-70
2022/04/13 10:13:32;;;;;;;;;14.00;10.50;;;;;16.47;70.87;101374.94;5057075;28;45351;-70
2022/04/13 10:16:01;;;;;;;;;12.50;10.50;;;;;16.47;70.72;101380.34;5057016;28;45278;-71
2022/04/13 10:18:27;;;;;;;;;10.75;9.50;;;;;16.43;70.59;101368.81;5068370;28;45305;-71
2022/04/13 10:20:53;;;;;;;;;14.00;11.75;;;;;16.40;70.71;101363.59;5060356;28;45526;-70
2022/04/13 10:23:18;;;;;;;;;12.25;12.25;;;;;16.45;71.30;101374.13;5056806;28;45485;-71
2022/04/13 10:25:44;;;;;;;;;10.25;8.25;;;;;16.50;69.92;101366.63;5056479;28;46038;-70
2022/04/13 10:28:12;;;;;;;;;8.00;8.00;;;;;16.49;69.76;101376.59;5056628;28;45353;-69
2022/04/13 10:30:42;;;;;;;;;10.00;9.00;;;;;16.46;70.14;101378.59;5056278;28;45532;-69
2022/04/13 10:33:11;;;;;;;;;8.25;8.25;;;;;16.42;69.66;101375.19;5056052;28;45378;-70
2022/04/13 10:35:41;;;;;;;;;11.00;9.50;;;;;16.42;70.50;101382.44;5056435;28;45370;-71
2022/04/13 10:38:08;;;;;;;;;6.25;6.00;;;;;16.37;69.58;101379.13;5056725;28;45453;-70
2022/04/13 10:40:40;;;;;;;;;3.50;3.00;;;;;16.37;70.43;101379.13;5056651;28;45295;-70
2022/04/13 10:43:07;;;;;;;;;8.00;5.00;;;;;16.45;70.35;101387.66;5056229;28;45527;-71
2022/04/13 10:45:34;;;;;;;;;8.50;7.50;;;;;16.48;70.58;101379.38;5056628;28;45220;-71
2022/04/13 10:48:05;;;;;;;;;9.25;7.75;;;;;16.52;70.00;101384.50;5056417;28;45448;-71
2022/04/13 10:50:45;;;;;;;;;9.75;6.00;;;;;16.54;69.04;101393.41;5056200;28;45275;-70
2022/04/13 10:53:25;;;;;;;;;10.25;7.75;;;;;16.38;69.41;101379.06;5056210;28;45567;-70
2022/04/13 10:55:57;;;;;;;;;12.25;8.50;;;;;16.45;69.32;101391.25;5056412;28;45286;-70
2022/04/13 10:59:08;;;;;;;;;7.00;7.00;;;;;16.51;69.14;101388.16;5037765;28;46041;-70
2022/04/13 11:01:44;;;;;;;;;8.00;7.00;;;;;16.54;68.70;101382.59;5011427;28;45628;-70
2022/04/13 11:04:09;;;;;;;;;10.00;7.75;;;;;16.63;68.53;101389.31;5056041;28;45374;-71
2022/04/13 11:06:38;;;;;;;;;7.75;7.25;;;;;16.68;69.02;101380.88;5055818;28;45401;-71
2022/04/13 11:09:08;;;;;;;;;6.25;6.00;;;;;16.73;67.70;101385.06;5056113;28;45356;-71
2022/04/13 11:11:37;;;;;;;;;6.00;6.00;;;;;16.75;68.76;101380.44;5056217;28;45509;-71
2022/04/13 11:14:21;;;;;;;;;12.00;9.25;;;;;16.71;68.46;101384.28;5054149;28;45924;-71
2022/04/13 11:16:51;;;;;;;;;8.25;7.75;;;;;16.72;69.53;101382.47;5055777;28;45647;-73
2022/04/13 11:19:18;;;;;;;;;7.25;7.25;;;;;16.77;69.78;101380.31;5055674;28;45291;-70
2022/04/13 11:21:55;;;;;;;;;9.25;7.00;;;;;16.85;70.15;101383.44;5056271;28;45322;-71
2022/04/13 11:24:35;;;;;;;;;6.75;6.00;;;;;16.90;67.46;101381.31;5055600;28;45603;-70
2022/04/13 11:27:01;;;;;;;;;5.75;5.75;;;;;16.93;67.99;101379.28;5058121;28;46333;-70
2022/04/13 11:29:37;;;;;;;;;5.50;5.50;;;;;17.02;66.27;101383.25;5055297;28;45189;-71
2022/04/13 11:32:04;;;;;;;;;4.75;4.00;;;;;17.03;66.63;101390.41;5055730;28;45269;-70
2022/04/13 11:34:39;;;;;;;;;7.25;7.00;;;;;17.03;67.30;101375.03;5055812;28;45513;-71
2022/04/13 11:37:14;;;;;;;;;6.25;6.25;;;;;17.04;66.57;101386.75;5037274;28;47443;-70
2022/04/13 11:39:59;;;;;;;;;9.75;6.00;;;;;17.00;66.64;101369.84;5055893;28;45415;-72
2022/04/13 11:42:28;;;;;;;;;6.25;5.75;;;;;17.10;67.68;101385.50;5055677;28;45387;-70
2022/04/13 11:45:06;;;;;;;;;10.00;8.75;;;;;17.09;67.64;101373.81;5055722;28;45271;-73
2022/04/13 11:47:46;;;;;;;;;6.75;6.75;;;;;17.13;68.49;101360.91;5055624;28;46256;-71
2022/04/13 11:50:12;;;;;;;;;6.00;6.00;;;;;17.16;67.04;101371.56;5055460;28;45395;-71
2022/04/13 11:53:06;;;;;;;;;7.00;5.00;;;;;17.18;66.94;101380.47;5055586;28;45337;-71
2022/04/13 11:55:36;;;;;;;;;7.25;7.25;;;;;17.16;67.31;101369.72;5055574;28;45462;-71
2022/04/13 11:58:04;;;;;;;;;7.50;6.50;;;;;17.23;67.30;101379.22;5055110;28;45959;-71
2022/04/13 12:00:57;;;;;;;;;7.75;7.75;;;;;17.27;67.76;101383.44;5055514;28;45261;-70
2022/04/13 12:03:25;;;;;;;;;8.50;8.50;;;;;17.32;66.94;101389.47;5054670;28;45229;-70
2022/04/13 12:06:12;;;;;;;;;6.00;6.00;;;;;17.25;67.11;101393.53;5055309;28;45314;-71
2022/04/13 12:08:39;;;;;;;;;8.00;7.75;;;;;17.21;66.02;101389.28;5055350;28;45402;-70
2022/04/13 12:11:13;;;;;;;;;6.50;5.00;;;;;17.15;66.66;101402.34;5055129;28;45169;-70
2022/04/13 12:13:56;;;;;;;;;8.75;5.25;;;;;17.01;66.66;101395.94;5054989;28;45289;-72
2022/04/13 12:16:33;;;;;;;;;5.50;4.00;;;;;17.05;65.92;101401.16;5055213;28;45481;-71
2022/04/13 12:19:09;;;;;;;;;5.25;5.25;;;;;16.99;65.60;101399.72;5053309;28;46479;-71
2022/04/13 12:21:39;;;;;;;;;3.75;3.75;;;;;16.94;65.89;101408.13;5054774;28;45350;-71
2022/04/13 12:24:11;;;;;;;;;4.50;4.00;;;;;16.89;66.30;101404.84;5054920;28;45414;-70
2022/04/13 12:26:39;;;;;;;;;4.00;4.00;;;;;16.86;66.45;101402.31;5054854;28;45273;-70
2022/04/13 12:29:13;;;;;;;;;4.25;4.25;;;;;16.82;66.79;101408.00;5054492;28;45382;-70
2022/04/13 12:31:53;;;;;;;;;5.00;4.00;;;;;16.89;66.86;101407.53;5054848;28;45564;-70
2022/04/13 12:34:20;;;;;;;;;6.25;5.00;;;;;16.94;65.99;101409.94;5055122;28;45240;-70
2022/04/13 12:36:55;;;;;;;;;4.00;4.00;;;;;16.97;66.90;101407.06;5054690;28;45266;-71
2022/04/13 12:39:30;;;;;;;;;4.25;4.25;;;;;17.06;66.13;101409.19;5063418;28;46106;-70
2022/04/13 12:41:57;;;;;;;;;4.25;4.25;;;;;17.04;65.67;101411.13;5074969;28;45343;-70
2022/04/13 12:44:22;;;;;;;;;6.00;3.00;;;;;17.01;66.16;101423.00;5074726;28;45339;-71
2022/04/13 12:46:48;;;;;;;;;3.50;3.50;;;;;16.96;66.04;101419.72;5075357;28;45445;-71
2022/04/13 12:49:21;;;;;;;;;4.00;4.00;;;;;16.94;66.35;101424.38;5074758;28;46199;-70
2022/04/13 12:51:47;;;;;;;;;6.50;6.50;;;;;16.96;65.84;101421.56;5074716;28;45222;-70
2022/04/13 12:54:17;;;;;;;;;6.25;5.00;;;;;16.92;66.50;101409.19;5075161;28;45335;-71
2022/04/13 12:56:48;;;;;;;;;5.00;4.00;;;;;16.99;66.04;101424.97;5074827;28;45469;-71
2022/04/13 12:59:25;;;;;;;;;7.75;4.00;;;;;17.09;66.72;101419.00;5074522;28;46235;-71
2022/04/13 13:01:54;;;;;;;;;6.75;4.75;;;;;17.12;65.72;101430.50;5074806;28;45390;-71
2022/04/13 13:04:27;;;;;;;;;3.50;3.50;;;;;17.03;64.15;101417.50;5074791;28;45250;-71
2022/04/13 13:07:01;;;;;;;;;3.75;3.00;;;;;17.12;64.50;101427.78;5074845;28;45316;-71
2022/04/13 13:09:31;;;;;;;;;3.00;3.00;;;;;17.23;64.00;101436.13;5074520;28;45474;-70
2022/04/13 13:11:59;;;;;;;;;4.00;4.00;;;;;17.15;63.47;101433.00;5074733;28;45312;-70
2022/04/13 13:14:43;;;;;;;;;6.75;4.00;;;;;17.22;64.22;101428.06;5073185;28;45464;-71
2022/04/13 13:17:31;;;;;;;;;2.00;2.00;;;;;17.26;62.08;101426.94;5051483;28;46323;-69
2022/04/13 13:20:14;;;;;;;;;4.00;4.00;;;;;17.25;62.68;101425.19;5043392;28;45993;-71
2022/04/13 13:22:48;;;;;;;;;3.25;3.25;;;;;17.34;63.53;101421.91;5054402;28;45630;-71
2022/04/13 13:25:15;;;;;;;;;3.00;3.00;;;;;17.40;61.72;101425.09;5036077;28;45354;-70
2022/04/13 13:27:48;;;;;;;;;4.00;4.00;;;;;17.40;62.54;101419.66;5036702;28;45465;-71
2022/04/13 13:30:19;;;;;;;;;1.00;0.75;;;;;17.47;61.05;101422.84;5053798;28;45458;-70
2022/04/13 13:32:47;;;;;;;;;3.00;2.50;;;;;17.59;61.03;101422.06;5053924;28;45291;-71
2022/04/13 13:35:18;;;;;;;;;5.00;2.00;;;;;17.75;60.96;101416.56;5054087;28;45268;-70
2022/04/13 13:37:47;;;;;;;;;2.75;2.75;;;;;18.02;61.24;101430.16;5053989;28;45502;-70
2022/04/13 13:40:40;;;;;;;;;3.50;3.50;;;;;18.28;60.54;101420.28;5053796;28;45293;-71
2022/04/13 13:43:23;;;;;;;;;3.00;3.00;;;;;18.47;60.11;101409.91;5053734;28;45331;-71
2022/04/13 13:45:50;;;;;;;;;5.00;4.00;;;;;18.46;57.87;101409.03;5054107;28;45347;-70
2022/04/13 13:48:23;;;;;;;;;3.00;3.00;;;;;18.40;59.54;101405.88;5052563;28;46925;-71
2022/04/13 13:50:51;;;;;;;;;5.00;5.00;;;;;18.53;58.89;101413.09;5054255;28;45266;-70
2022/04/13 13:53:17;;;;;;;;;2.50;2.50;;;;;18.71;58.86;101412.84;5053721;28;45343;-71
2022/04/13 13:55:44;;;;;;;;;3.00;3.00;;;;;18.86;57.67;101407.19;5053959;28;45512;-71
2022/04/13 13:58:10;;;;;;;;;4.00;2.50;;;;;19.11;57.78;101417.22;5053634;28;45510;-70
2022/04/13 14:00:35;;;;;;;;;4.00;4.00;;;;;19.34;57.44;101412.84;5053835;28;45398;-71
2022/04/13 14:03:03;;;;;;;;;4.25;3.00;;;;;19.57;57.49;101409.34;5053493;28;45331;-70
2022/04/13 14:05:29;;;;;;;;;2.25;2.25;;;;;19.70;55.48;101390.28;5053938;28;45413;-70
2022/04/13 14:07:56;;;;;;;;;2.00;2.00;;;;;19.99;54.75;101394.41;5053682;28;45545;-71
2022/04/13 14:10:22;;;;;;;;;2.00;2.00;;;;;20.22;54.11;101380.94;5053638;28;45397;-71
2022/04/13 14:12:48;;;;;;;;;3.00;3.00;;;;;20.49;54.42;101381.59;5053497;28;45303;-71
2022/04/13 14:15:15;;;;;;;;;4.25;1.00;;;;;20.74;54.18;101394.19;5053487;28;45442;-71
2022/04/13 14:17:42;;;;;;;;;2.00;2.00;;;;;20.75;51.78;101390.47;5057979;28;45624;-71
2022/04/13 14:20:09;;;;;;;;;3.25;2.25;;;;;20.60;51.57;101389.78;5063239;28;45685;-70
2022/04/13 14:22:35;;;;;;;;;2.00;2.00;;;;;20.49;52.67;101388.91;5053025;28;45217;-71
2022/04/13 14:25:01;;;;;;;;;3.00;3.00;;;;;20.45;53.01;101393.69;5054432;28;45320;-72
2022/04/13 14:27:27;;;;;;;;;3.50;2.50;;;;;20.36;53.54;101392.56;5056402;28;45644;-71
2022/04/13 14:29:52;;;;;;;;;1.25;1.25;;;;;20.21;52.82;101379.22;5056397;28;46041;-72
2022/04/13 14:32:18;;;;;;;;;2.00;2.00;;;;;20.24;50.64;101401.63;5056598;28;45399;-71
2022/04/13 14:34:44;;;;;;;;;3.00;1.75;;;;;19.99;50.14;101399.00;5057099;28;45638;-71
2022/04/13 14:37:09;;;;;;;;;1.25;1.25;;;;;19.77;49.92;101404.31;5056379;28;45522;-70
2022/04/13 14:39:35;;;;;;;;;2.00;1.00;;;;;19.75;51.55;101395.38;5056775;28;45428;-70
2022/04/13 14:42:00;;;;;;;;;1.25;1.25;;;;;19.80;51.72;101404.97;5056581;28;45345;-70
2022/04/13 14:44:26;;;;;;;;;1.25;1.25;;;;;19.80;52.03;101404.97;5056634;28;45256;-72
2022/04/13 14:46:52;;;;;;;;;3.00;3.00;;;;;19.91;52.12;101398.69;5056656;28;45513;-71
2022/04/13 14:49:18;;;;;;;;;2.50;1.25;;;;;20.05;51.78;101378.63;5056564;28;45492;-71
2022/04/13 14:51:44;;;;;;;;;3.75;2.00;;;;;19.89;50.54;101368.03;5056328;28;45315;-71
2022/04/13 14:54:09;;;;;;;;;2.00;2.00;;;;;19.82;50.58;101372.19;5038444;28;45390;-71
2022/04/13 14:56:34;;;;;;;;;5.00;3.00;;;;;19.83;50.85;101385.66;5056703;28;45553;-71
2022/04/13 14:59:01;;;;;;;;;5.25;4.75;;;;;19.89;51.44;101390.69;5056065;28;45398;-71
2022/04/13 15:01:26;;;;;;;;;2.75;2.75;;;;;19.92;51.28;101379.53;5056324;28;45383;-72
2022/04/13 15:03:52;;;;;;;;;2.50;1.25;;;;;19.84;51.37;101376.53;5056258;28;45331;-71
2022/04/13 15:06:19;;;;;;;;;1.00;1.00;;;;;19.74;51.60;101380.03;5056410;28;45333;-71
2022/04/13 15:08:44;;;;;;;;;3.75;2.00;;;;;19.61;51.87;101367.34;5056163;28;45972;-70
2022/04/13 15:11:10;;;;;;;;;2.00;2.00;;;;;19.51;51.58;101381.75;5056086;28;45316;-71
2022/04/13 15:13:37;;;;;;;;;2.00;2.00;;;;;19.39;52.86;101380.78;5056120;28;45453;-71
2022/04/13 15:16:03;;;;;;;;;2.00;2.00;;;;;19.39;52.93;101379.91;5056066;28;45365;-71
2022/04/13 15:18:28;;;;;;;;;3.00;1.50;;;;;19.40;53.15;101382.47;5066770;28;45303;-71
2022/04/13 15:20:53;;;;;;;;;2.00;2.00;;;;;19.35;52.94;101381.97;5059608;28;45381;-71
2022/04/13 15:23:19;;;;;;;;;3.50;1.50;;;;;19.30;53.46;101383.28;5056086;28;45379;-71
2022/04/13 15:25:44;;;;;;;;;4.75;3.00;;;;;19.31;53.93;101387.75;5055446;28;45370;-71
2022/04/13 15:28:10;;;;;;;;;2.00;2.00;;;;;19.32;53.76;101387.59;5055470;28;45329;-70
2022/04/13 15:30:37;;;;;;;;;3.25;2.00;;;;;19.39;53.58;101396.22;5056093;28;45427;-70
2022/04/13 15:33:03;;;;;;;;;2.00;1.25;;;;;19.37;52.75;101388.16;5055627;28;45418;-71
2022/04/13 15:35:28;;;;;;;;;1.00;1.00;;;;;19.47;52.86;101378.38;5055705;28;45250;-71
2022/04/13 15:37:53;;;;;;;;;2.25;2.00;;;;;19.66;52.66;101369.72;5054690;28;45549;-71
2022/04/13 15:40:19;;;;;;;;;1.75;1.75;;;;;19.93;52.04;101385.84;5055856;28;45225;-71
2022/04/13 15:42:44;;;;;;;;;1.00;1.00;;;;;20.15;50.92;101383.28;5056326;28;45296;-71
2022/04/13 15:45:11;;;;;;;;;2.00;0.75;;;;;20.29;50.27;101371.31;5055320;28;45380;-73
2022/04/13 15:47:36;;;;;;;;;0.00;0.00;;;;;20.41;50.07;101389.50;5055518;28;46998;-71
2022/04/13 15:50:03;;;;;;;;;2.75;2.00;;;;;20.34;48.77;101388.19;5055560;28;45356;-70
2022/04/13 15:52:31;;;;;;;;;2.25;0.50;;;;;20.35;48.44;101409.00;5055561;28;45393;-69
2022/04/13 15:54:58;;;;;;;;;3.00;1.50;;;;;20.39;49.74;101408.66;5055431;28;45583;-71